AirNav   Pilot Hours Calculator
 
 1497 users online  

FL76 Heli-Partners I-Drive Heliport
Orlando, Florida, USA

GOING TO ORLANDO?


FAA INFORMATION EFFECTIVE 07 NOVEMBER 2019

Location

FAA Identifier: FL76
Lat/Long: 28-23-04.0000N 081-29-07.0000W
28-23.066667N 081-29.116667W
28.3844444,-81.4852778
(estimated)
Elevation: 112 ft. / 34 m (estimated)
From city: 10 miles E of ORLANDO, FL
Time zone: UTC -5 (UTC -4 during Daylight Saving Time)
Zip code: 32821

Heliport Operations

Heliport use: Private use. Permission required prior to landing
Activation date: 04/2014
Control tower: no
ARTCC: JACKSONVILLE CENTER
FSS: SAINT PETERSBURG FLIGHT SERVICE STATION
Attendance: 0900-SS
Wind indicator: yes
Segmented circle: no

Heliport Communications

WX AWOS-3PT at ISM (6 nm SE): 128.775 (407-847-0533)
WX ASOS at MCO (10 nm E): PHONE 407-855-5235
WX ASOS at ORL (13 nm NE): PHONE 407-658-6753

Nearby radio navigation aids

VOR radial/distance  VOR name  Freq  Var
ORLr220/12.4ORLANDO VORTAC112.2000E
LALr048/36.8LAKELAND VORTAC116.0001E

Heliport Services

Runway Information

Helipad H1

Dimensions: 25 x 25 ft. / 8 x 8 m
Surface: concrete
Traffic pattern: leftleft

Heliport Ownership and Management from official FAA records

Ownership: Privately-owned
Owner: RICK VIOLETTE
12651 INTERNATIONAL DRIVE
ORLANDO, FL 32821
Phone 407-239-8687
Manager: RICK VIOLETTE
12651 INTERNATIONAL DRIVE
ORLANDO, FL 32821
Phone 407-239-8687

Heliport Operational Statistics

Aircraft based on the field: 4
Single engine airplanes: 1
Jet airplanes: 1
Helicopters: 2
    

Additional Remarks

FOR CD CTC ORLANDO APCH AT 407-852-7553.

Instrument Procedures

There are no published instrument procedures at FL76.

Some nearby airports with instrument procedures:

KISM - Kissimmee Gateway Airport (6 nm SE)
KMCO - Orlando International Airport (10 nm E)
KORL - Executive Airport (13 nm NE)
X04 - Orlando Apopka Airport (20 nm N)
KGIF - Winter Haven Regional Airport (24 nm SW)
 
Loc | Ops | Rwys | IFR | FBO | Links
Com | Nav | Svcs | Stats | Notes


 
Aerial photo
No photo
 
Airport distance calculator
Flying to Heli-Partners I-Drive Heliport? Find the distance to fly.

From to FL76

Sunrise and sunset
Times for 12-Nov-2019
 Local
(UTC-5)
 Zulu
(UTC)
Morning civil twilight06:2211:22
Sunrise06:4711:47
Sunset17:3322:33
Evening civil twilight17:5822:58

Current date and time
Zulu (UTC)  12-Nov-2019 17:19:06
Local (UTC-5)  12-Nov-2019 12:19:06
 
METAR
KISM 
7nm SE 
121656Z 22009KT 10SM CLR 27/16 A2996 RMK AO2 SLP146 T02720156 PNO $
KMCO 
8nm E 
121653Z 23008KT 10SM FEW043 28/15 A2995 RMK AO2 SLP141 T02780150
KORL 
13nm NE 
121653Z 21009KT 10SM CLR 28/14 A2995 RMK AO2 SLP145 T02830144
TAF
KISM 
7nm SE 
121342Z 1214/1312 00000KT P6SM SKC FM121500 23007KT P6SM SCT030 BKN250 FM122200 28006KT P6SM VCSH SCT040 BKN060 FM130200 34012KT P6SM VCSH SCT035 BKN060
KMCO 
8nm E 
121458Z 1215/1318 23008KT P6SM FEW030 SCT250 FM122200 28006KT P6SM VCSH SCT040 BKN060 FM130200 34012KT P6SM VCSH SCT035 BKN060 FM131500 01015KT P6SM BKN060 BKN250
NOTAMs
Click for the latest NOTAMs
NOTAMs are issued by the DoD/FAA and will open in a separate window not controlled by AirNav.

 

 
 

Would you like to see your business listed on this page?

 If your business provides an interesting product or service to pilots, flight crews, aircraft, or users of the Heli-Partners I-Drive Heliport, you should consider listing it here.  To start the listing process, click on the button below
 
Add a business
 

Other Pages about Heli-Partners I-Drive Heliport

Update a link
 
Copyright © AirNav, LLC. All rights reserved. Privacy Policy  Contact